New Bloomfield, Pennsylvania
Current Conditions -  °F | °C
As of 6:56 PM on Saturday 25 Oct 2014 (Local Time) from KCXY Reporting Station
Broken Clouds Broken Clouds  
Wind Chill: 64°   Ceiling: 6000
Heat Index: 64°   Visibility: 10mi
Dew Point: 45°   Wind: 5mph
Humidity: 50%   Direction: 240°WSW
Pressure: 29.68"   Gusts: NA
Location:  40.42°N, 77.19°W
Report Text: KCXY 252256Z 24004KT 10SM BKN060 18/07 A2968 RMK AO2 SLP052 T01780072
Loading
Personal Weather Stations






























Interactive Weather Map
Tropical Storm Tracking
New forecast layout! Learn more

10-Day Weather Forecast

Advertisements
Track Severe Weather on mobile